Time;durP1;ratioP1;P1;durP2;ratioP2;P2;SDS_P1;SDS_P2;PMS_P1;PMS_P2;Temp;Humidity;BMP_temperature;BMP_pressure;BME280_temperature;BME280_humidity;BME280_pressure;Samples;Min_cycle;Max_cycle;Signal;HPM_P1;HPM_P2
2024/03/14 00:00:55;;;;;;;1.23;0.43;;;;;;;36.51;26.77;98899.06;7393605;19;20010;-51
2024/03/14 00:03:22;;;;;;;0.75;0.63;;;;;;;36.99;26.43;98903.31;7393928;19;20045;-51
2024/03/14 00:05:49;;;;;;;0.95;0.47;;;;;;;36.97;26.59;98900.38;7393355;19;20014;-51
2024/03/14 00:08:15;;;;;;;1.83;0.43;;;;;;;36.75;26.60;98899.75;7398368;19;20037;-51
2024/03/14 00:10:41;;;;;;;1.40;0.73;;;;;;;37.01;26.41;98891.03;7393530;19;20018;-51
2024/03/14 00:13:07;;;;;;;0.38;0.25;;;;;;;37.43;26.31;98891.41;7396360;19;20006;-51
2024/03/14 00:15:34;;;;;;;1.75;0.52;;;;;;;37.39;26.31;98891.28;7394243;19;20014;-51
2024/03/14 00:18:04;;;;;;;2.38;0.43;;;;;;;37.41;26.31;98886.28;7392554;19;20022;-51
2024/03/14 00:20:31;;;;;;;0.57;0.50;;;;;;;37.58;26.21;98878.69;7396857;19;20011;-51
2024/03/14 00:22:58;;;;;;;2.35;0.15;;;;;;;37.63;26.16;98880.25;7397633;19;20015;-51
2024/03/14 00:25:26;;;;;;;3.03;0.25;;;;;;;37.68;26.17;98879.69;7393069;19;20023;-51
2024/03/14 00:27:52;;;;;;;5.15;0.60;;;;;;;37.71;25.78;98880.44;7392684;19;20086;-51
2024/03/14 00:30:18;;;;;;;0.63;0.50;;;;;;;37.42;26.10;98878.31;7390220;19;20077;-51
2024/03/14 00:32:44;;;;;;;0.30;0.30;;;;;;;37.31;26.33;98873.66;7395744;19;20014;-51
2024/03/14 00:35:12;;;;;;;6.22;0.85;;;;;;;37.27;26.29;98876.44;7391820;19;20042;-51
2024/03/14 00:37:39;;;;;;;1.30;0.20;;;;;;;37.89;25.85;98866.38;7392878;19;20007;-51
2024/03/14 00:40:08;;;;;;;0.22;0.17;;;;;;;38.10;25.48;98879.19;7392320;19;20066;-51
2024/03/14 00:42:34;;;;;;;0.57;0.20;;;;;;;38.97;25.31;98870.06;7391170;19;20021;-51
2024/03/14 00:45:01;;;;;;;1.48;0.40;;;;;;;39.07;24.86;98864.44;7392059;19;20041;-51
2024/03/14 00:47:27;;;;;;;3.60;0.77;;;;;;;38.96;24.70;98868.59;7391425;19;20007;-51
2024/03/14 00:49:53;;;;;;;2.55;0.20;;;;;;;39.24;24.40;98872.78;7390856;19;20023;-51
2024/03/14 00:52:19;;;;;;;0.73;0.57;;;;;;;39.36;24.67;98869.31;7391924;19;20015;-51
2024/03/14 00:54:45;;;;;;;0.75;0.20;;;;;;;39.55;24.20;98864.53;7392166;19;20011;-51
2024/03/14 00:57:11;;;;;;;2.60;0.55;;;;;;;39.20;24.82;98849.38;7391832;19;20014;-51
2024/03/14 00:59:38;;;;;;;0.38;0.38;;;;;;;38.79;24.59;98852.97;7392420;19;20074;-51
2024/03/14 01:02:04;;;;;;;1.02;0.50;;;;;;;38.86;24.84;98845.09;7393787;19;20006;-50
2024/03/14 01:04:30;;;;;;;5.72;0.40;;;;;;;38.73;24.92;98840.50;7395479;19;20014;-51
2024/03/14 01:06:56;;;;;;;0.17;0.17;;;;;;;39.14;24.71;98843.44;7396270;19;20014;-51
2024/03/14 01:09:24;;;;;;;3.33;0.38;;;;;;;38.77;24.72;98843.50;7397408;19;20371;-51
2024/03/14 01:11:53;;;;;;;0.55;0.43;;;;;;;38.68;24.80;98840.41;7402159;19;20015;-51
2024/03/14 01:14:20;;;;;;;0.17;0.10;;;;;;;39.13;24.45;98835.44;7399768;19;20043;-51
2024/03/14 01:16:49;;;;;;;0.20;0.10;;;;;;;39.44;24.19;98831.53;7401763;19;20443;-51
2024/03/14 01:19:16;;;;;;;1.77;0.57;;;;;;;39.57;24.32;98838.34;7399579;19;20033;-51
2024/03/14 01:21:43;;;;;;;3.92;0.63;;;;;;;39.33;24.63;98838.69;7400718;19;20482;-51
2024/03/14 01:24:10;;;;;;;3.00;1.05;;;;;;;39.41;23.96;98832.97;7402455;19;20219;-51
2024/03/14 01:26:36;;;;;;;1.67;1.05;;;;;;;39.45;24.33;98830.13;7397720;19;20478;-51
2024/03/14 01:29:06;;;;;;;0.82;0.28;;;;;;;39.63;23.85;98835.50;7398567;19;20019;-51
2024/03/14 01:31:33;;;;;;;0.20;0.20;;;;;;;39.85;23.67;98830.72;7399176;19;20027;-52
2024/03/14 01:34:01;;;;;;;0.90;0.60;;;;;;;39.54;24.11;98828.06;7399223;19;20010;-51
2024/03/14 01:36:27;;;;;;;0.13;0.13;;;;;;;39.29;24.09;98821.09;7397525;19;20022;-51
2024/03/14 01:38:53;;;;;;;7.80;0.57;;;;;;;38.81;24.17;98834.84;7397962;19;20066;-51
2024/03/14 01:41:21;;;;;;;1.90;0.50;;;;;;;38.81;24.48;98832.66;7400212;19;20033;-51
2024/03/14 01:43:58;;;;;;;3.30;1.25;;;;;;;39.59;24.10;98836.19;7397763;19;20014;-50
2024/03/14 01:46:26;;;;;;;3.50;0.98;;;;;;;39.72;24.04;98831.28;7401729;19;20011;-51
2024/03/14 01:48:52;;;;;;;0.60;0.60;;;;;;;39.41;24.03;98832.97;7395723;19;20094;-50
2024/03/14 01:51:18;;;;;;;0.80;0.80;;;;;;;39.38;24.30;98825.63;7396270;19;20062;-51
2024/03/14 01:53:45;;;;;;;0.50;0.25;;;;;;;39.19;24.32;98832.59;7399230;19;20006;-51
2024/03/14 01:56:12;;;;;;;1.45;0.35;;;;;;;38.84;24.66;98827.59;7396619;19;20019;-51
2024/03/14 01:58:39;;;;;;;2.97;1.25;;;;;;;38.77;24.37;98823.84;7396475;19;20006;-51
2024/03/14 02:01:05;;;;;;;0.57;0.35;;;;;;;38.74;24.43;98815.78;7397969;19;20027;-51
2024/03/14 02:03:32;;;;;;;2.75;0.57;;;;;;;38.41;24.46;98812.22;7398559;19;20085;-51
2024/03/14 02:06:07;;;;;;;1.75;0.80;;;;;;;38.29;24.34;98809.06;7398207;19;20018;-51
2024/03/14 02:08:34;;;;;;;0.60;0.38;;;;;;;38.26;24.19;98804.66;7396862;19;20022;-51
2024/03/14 02:11:01;;;;;;;0.73;0.70;;;;;;;38.03;24.33;98805.63;7398394;19;20014;-51
2024/03/14 02:13:27;;;;;;;0.82;0.57;;;;;;;37.92;24.58;98806.84;7399819;19;20025;-51
2024/03/14 02:15:53;;;;;;;2.58;0.45;;;;;;;37.94;24.40;98803.97;7400059;19;20467;-51
2024/03/14 02:18:19;;;;;;;7.78;0.70;;;;;;;38.16;24.51;98794.97;7396251;19;20014;-51
2024/03/14 02:20:46;;;;;;;4.43;0.75;;;;;;;37.97;24.89;98791.69;7397625;19;20489;-51
2024/03/14 02:23:12;;;;;;;1.83;0.50;;;;;;;37.91;24.63;98785.00;7396810;19;20015;-51
2024/03/14 02:25:38;;;;;;;8.35;0.57;;;;;;;37.64;24.91;98783.66;7397628;19;20038;-51
2024/03/14 02:28:04;;;;;;;2.05;0.38;;;;;;;37.60;24.83;98771.94;7395358;19;20062;-51
2024/03/14 02:30:31;;;;;;;4.07;0.40;;;;;;;37.50;25.16;98776.81;7393794;19;20074;-51
2024/03/14 02:32:57;;;;;;;0.25;0.15;;;;;;;37.62;24.88;98774.91;7399059;19;20494;-51
2024/03/14 02:35:24;;;;;;;0.20;0.20;;;;;;;37.83;24.81;98773.22;7401030;19;20006;-51
2024/03/14 02:37:52;;;;;;;5.18;1.15;;;;;;;37.96;24.80;98772.03;7395734;19;20478;-51
2024/03/14 02:40:18;;;;;;;0.30;0.30;;;;;;;37.43;24.72;98769.38;7396516;19;20023;-51
2024/03/14 02:42:47;;;;;;;0.47;0.30;;;;;;;37.36;24.79;98764.88;7396854;19;20010;-51
2024/03/14 02:45:14;;;;;;;0.50;0.20;;;;;;;37.29;24.86;98774.84;7396451;19;20031;-51
2024/03/14 02:47:40;;;;;;;0.40;0.38;;;;;;;37.35;24.96;98772.84;7400509;19;20052;-51
2024/03/14 02:50:09;;;;;;;0.63;0.52;;;;;;;37.43;25.34;98758.50;7392969;19;20015;-51
2024/03/14 02:52:36;;;;;;;0.43;0.43;;;;;;;37.14;25.16;98762.88;7396386;19;20043;-51
2024/03/14 02:55:02;;;;;;;2.58;0.38;;;;;;;37.33;25.17;98763.31;7396471;19;20021;-51
2024/03/14 02:57:28;;;;;;;0.93;0.82;;;;;;;36.92;25.72;98759.44;7395707;19;20018;-51
2024/03/14 02:59:54;;;;;;;2.65;1.00;;;;;;;37.07;25.49;98758.38;7395924;19;20074;-51
2024/03/14 03:02:20;;;;;;;0.32;0.20;;;;;;;36.22;26.16;98743.78;7398853;19;20458;-51
2024/03/14 03:04:46;;;;;;;1.50;0.73;;;;;;;35.91;26.24;98749.38;7395999;19;20084;-51
2024/03/14 03:07:12;;;;;;;0.77;0.40;;;;;;;35.44;26.80;98750.88;7395966;19;20011;-51
2024/03/14 03:09:41;;;;;;;6.07;0.82;;;;;;;36.16;26.22;98742.88;7393583;19;20010;-51
2024/03/14 03:12:07;;;;;;;0.28;0.28;;;;;;;35.28;26.67;98746.75;7398216;19;20009;-51
2024/03/14 03:14:33;;;;;;;1.95;0.73;;;;;;;34.81;27.22;98756.03;7393389;19;20015;-51
2024/03/14 03:16:59;;;;;;;0.93;0.28;;;;;;;34.69;27.56;98755.66;7398398;19;20094;-51
2024/03/14 03:19:25;;;;;;;1.30;0.20;;;;;;;34.74;27.42;98757.28;7395429;19;20019;-51
2024/03/14 03:21:51;;;;;;;2.97;1.27;;;;;;;35.10;27.17;98746.16;7399626;19;20523;-51
2024/03/14 03:24:17;;;;;;;0.20;0.13;;;;;;;34.82;27.60;98751.75;7395010;19;20463;-51
2024/03/14 03:26:43;;;;;;;2.15;0.28;;;;;;;35.18;27.20;98741.38;7395433;19;20074;-51
2024/03/14 03:29:12;;;;;;;1.17;0.75;;;;;;;35.72;26.60;98733.63;7394598;19;20035;-51
2024/03/14 03:31:38;;;;;;;0.40;0.25;;;;;;;36.03;26.65;98720.75;7393008;19;20030;-51
2024/03/14 03:34:04;;;;;;;3.20;0.65;;;;;;;36.16;26.46;98722.56;7400012;19;20482;-51
2024/03/14 03:36:30;;;;;;;2.60;0.47;;;;;;;36.75;26.16;98728.53;7394169;19;20093;-51
2024/03/14 03:38:57;;;;;;;2.53;0.90;;;;;;;36.70;25.90;98714.59;7395827;19;20011;-51
2024/03/14 03:41:23;;;;;;;1.60;0.30;;;;;;;37.63;25.05;98717.50;7395492;19;20446;-51
2024/03/14 03:43:52;;;;;;;0.50;0.20;;;;;;;37.41;25.19;98711.22;7397437;19;20014;-51
2024/03/14 03:46:19;;;;;;;0.95;0.57;;;;;;;37.70;25.03;98707.50;7397230;19;20014;-51
2024/03/14 03:48:45;;;;;;;0.40;0.40;;;;;;;37.69;25.30;98706.75;7392438;19;20361;-51
2024/03/14 03:51:17;;;;;;;0.10;0.10;;;;;;;37.90;25.05;98710.84;7394476;19;20101;-51
2024/03/14 03:53:47;;;;;;;0.35;0.35;;;;;;;37.93;24.94;98703.63;7394850;19;20014;-51
2024/03/14 03:56:13;;;;;;;0.20;0.10;;;;;;;37.44;24.94;98695.31;7397776;19;20031;-51
2024/03/14 03:58:40;;;;;;;4.95;0.50;;;;;;;37.12;25.53;98696.03;7394326;19;20014;-51
2024/03/14 04:01:12;;;;;;;1.17;0.47;;;;;;;37.12;25.25;98698.94;7394144;19;20032;-51
2024/03/14 04:03:40;;;;;;;0.60;0.60;;;;;;;37.04;25.38;98700.91;7394549;19;20041;-51
2024/03/14 04:06:10;;;;;;;0.77;0.77;;;;;;;36.89;25.75;98696.94;7395650;19;20014;-51
2024/03/14 04:08:37;;;;;;;0.65;0.65;;;;;;;36.82;25.96;98695.28;7392643;19;20011;-51
2024/03/14 04:11:07;;;;;;;0.40;0.17;;;;;;;36.92;25.67;98701.38;7394986;19;20054;-51
2024/03/14 04:13:33;;;;;;;2.72;1.83;;;;;;;36.76;26.07;98685.69;7393817;19;20010;-51
2024/03/14 04:16:05;;;;;;;0.50;0.35;;;;;;;36.79;25.83;98693.03;7394905;19;20493;-51
2024/03/14 04:18:32;;;;;;;1.55;0.63;;;;;;;36.99;25.52;98681.94;7394602;19;20015;-51
2024/03/14 04:20:58;;;;;;;0.30;0.30;;;;;;;37.27;25.31;98673.88;7393573;19;20011;-51
2024/03/14 04:23:27;;;;;;;3.22;0.20;;;;;;;37.22;25.36;98675.22;7391788;19;20066;-51
2024/03/14 04:25:53;;;;;;;0.85;0.50;;;;;;;37.09;25.56;98679.25;7393134;19;20017;-51
2024/03/14 04:28:23;;;;;;;1.60;0.47;;;;;;;36.22;26.32;98664.75;7395115;19;20019;-51
2024/03/14 04:30:50;;;;;;;2.95;0.82;;;;;;;36.12;26.16;98661.59;7393571;19;20463;-51
2024/03/14 04:33:18;;;;;;;4.68;1.38;;;;;;;35.75;26.65;98663.47;7392986;19;20018;-51
2024/03/14 04:35:45;;;;;;;2.58;0.63;;;;;;;35.81;26.82;98657.09;7392427;19;20007;-51
2024/03/14 04:38:12;;;;;;;0.30;0.30;;;;;;;35.86;26.64;98663.75;7392563;19;20014;-51
2024/03/14 04:40:39;;;;;;;6.13;0.65;;;;;;;35.69;26.70;98657.47;7394033;19;20029;-51
2024/03/14 04:43:07;;;;;;;1.08;0.17;;;;;;;37.13;25.60;98656.88;7392877;19;20011;-51
2024/03/14 04:45:33;;;;;;;7.63;0.50;;;;;;;37.36;25.70;98648.66;7394372;19;20010;-51
2024/03/14 04:48:04;;;;;;;3.25;1.42;;;;;;;35.95;26.16;98645.16;7393355;19;20010;-51
2024/03/14 04:50:30;;;;;;;0.20;0.20;;;;;;;35.40;26.98;98657.34;7390524;19;20014;-51
2024/03/14 04:52:56;;;;;;;6.00;0.80;;;;;;;35.06;27.22;98662.84;7395162;19;20021;-51
2024/03/14 04:55:23;;;;;;;2.53;0.90;;;;;;;34.61;27.62;98662.81;7392837;19;20011;-51
2024/03/14 04:57:49;;;;;;;10.43;1.23;;;;;;;36.02;26.45;98650.44;7392821;19;20316;-51
2024/03/14 05:00:21;;;;;;;0.30;0.22;;;;;;;38.11;24.92;98648.72;7392551;19;20015;-51
2024/03/14 05:02:48;;;;;;;0.40;0.32;;;;;;;38.49;24.64;98649.41;7391381;19;20501;-51
2024/03/14 05:05:15;;;;;;;1.48;0.50;;;;;;;38.63;24.42;98652.56;7395721;19;20017;-51
2024/03/14 05:07:44;;;;;;;1.42;0.68;;;;;;;38.59;24.65;98643.03;7392459;19;20015;-51
2024/03/14 05:10:14;;;;;;;15.43;1.27;;;;;;;38.88;24.37;98635.50;7390499;19;20010;-51
2024/03/14 05:12:40;;;;;;;3.20;0.63;;;;;;;38.93;24.13;98634.09;7396566;19;20037;-51
2024/03/14 05:15:07;;;;;;;2.03;0.47;;;;;;;38.86;24.32;98638.34;7393212;19;20070;-51
2024/03/14 05:17:34;;;;;;;1.50;0.63;;;;;;;38.53;24.24;98629.09;7392433;19;20021;-51
2024/03/14 05:20:01;;;;;;;1.13;0.30;;;;;;;36.95;25.63;98636.13;7391336;19;20014;-51
2024/03/14 05:22:32;;;;;;;1.08;0.63;;;;;;;36.69;25.86;98635.47;7391397;19;20500;-51
2024/03/14 05:24:59;;;;;;;0.28;0.28;;;;;;;36.64;26.00;98636.84;7393166;19;20007;-51
2024/03/14 05:27:27;;;;;;;1.77;0.50;;;;;;;37.83;25.12;98630.75;7391284;19;20440;-51
2024/03/14 05:29:54;;;;;;;9.63;0.70;;;;;;;38.02;24.71;98635.47;7389706;19;20041;-51
2024/03/14 05:32:22;;;;;;;2.22;0.63;;;;;;;36.55;26.23;98632.25;7391607;19;20015;-51
2024/03/14 05:34:51;;;;;;;0.40;0.20;;;;;;;36.37;26.23;98628.88;7391635;19;20074;-51
2024/03/14 05:37:17;;;;;;;0.68;0.20;;;;;;;36.28;26.20;98624.28;7391457;19;20074;-51
2024/03/14 05:39:44;;;;;;;1.85;1.08;;;;;;;36.07;26.25;98633.91;7391440;19;20026;-51
2024/03/14 05:42:12;;;;;;;3.78;0.20;;;;;;;36.07;26.40;98628.84;7392017;19;20010;-51
2024/03/14 05:44:41;;;;;;;1.45;0.75;;;;;;;35.98;26.35;98632.19;7391949;19;20363;-51
2024/03/14 05:47:10;;;;;;;1.42;0.77;;;;;;;36.05;26.48;98630.94;7396262;19;20026;-51
2024/03/14 05:49:38;;;;;;;1.92;0.68;;;;;;;36.22;26.14;98632.84;7389931;19;20015;-51
2024/03/14 05:52:04;;;;;;;0.52;0.52;;;;;;;35.91;26.44;98628.38;7391225;19;20097;-51
2024/03/14 05:54:31;;;;;;;2.40;0.32;;;;;;;34.87;27.15;98631.84;7395840;19;20066;-51
2024/03/14 05:56:58;;;;;;;7.78;0.80;;;;;;;34.39;27.68;98624.47;7398895;19;20343;-51
2024/03/14 05:59:24;;;;;;;1.95;0.45;;;;;;;34.23;27.97;98622.50;7398086;19;20014;-51
2024/03/14 06:01:53;;;;;;;6.65;0.65;;;;;;;34.59;27.34;98619.38;7397735;19;20025;-51
2024/03/14 06:04:21;;;;;;;0.45;0.45;;;;;;;35.15;27.25;98620.41;7396568;19;20019;-51
2024/03/14 06:06:50;;;;;;;3.55;0.65;;;;;;;34.93;27.22;98614.66;7397621;19;20363;-51
2024/03/14 06:09:17;;;;;;;0.75;0.70;;;;;;;35.06;27.52;98622.31;7398423;19;20074;-51
2024/03/14 06:11:43;;;;;;;0.70;0.70;;;;;;;35.11;27.31;98621.00;7399996;19;20022;-51
2024/03/14 06:14:10;;;;;;;1.67;1.02;;;;;;;35.83;27.06;98604.97;7396903;19;20010;-51
2024/03/14 06:16:36;;;;;;;0.50;0.20;;;;;;;35.49;27.19;98610.59;7400362;19;20007;-51
2024/03/14 06:19:03;;;;;;;9.98;0.52;;;;;;;35.30;27.08;98596.97;7397591;19;20074;-51
2024/03/14 06:21:29;;;;;;;0.22;0.20;;;;;;;35.27;26.75;98598.31;7399610;19;20010;-51
2024/03/14 06:23:55;;;;;;;7.10;0.82;;;;;;;35.93;26.47;98613.22;7396381;19;20096;-51
2024/03/14 06:26:21;;;;;;;3.33;0.60;;;;;;;36.42;26.24;98601.44;7397218;19;20010;-51
2024/03/14 06:28:48;;;;;;;0.80;0.52;;;;;;;36.29;26.43;98614.91;7396367;19;20011;-51
2024/03/14 06:31:15;;;;;;;7.15;0.98;;;;;;;36.66;26.15;98604.97;7396264;19;20029;-51
2024/03/14 06:33:41;;;;;;;6.03;1.58;;;;;;;36.32;26.47;98607.00;7396336;19;20028;-51
2024/03/14 06:36:08;;;;;;;0.25;0.20;;;;;;;36.86;25.85;98593.78;7395674;19;20355;-51
2024/03/14 06:38:34;;;;;;;1.45;0.10;;;;;;;37.14;25.56;98605.34;7396520;19;20017;-51
2024/03/14 06:41:00;;;;;;;3.97;0.80;;;;;;;37.11;25.68;98610.34;7396894;19;20014;-51
2024/03/14 06:43:26;;;;;;;29.13;3.90;;;;;;;37.00;25.48;98607.91;7396123;19;20351;-51
2024/03/14 06:45:53;;;;;;;28.00;4.35;;;;;;;36.32;26.00;98601.22;7397807;19;21082;-51
2024/03/14 06:48:20;;;;;;;37.10;6.75;;;;;;;35.43;26.88;98603.84;7396472;19;20013;-51
2024/03/14 06:50:46;;;;;;;12.07;2.60;;;;;;;35.18;27.02;98613.97;7396314;19;20080;-51
2024/03/14 06:53:14;;;;;;;1.95;1.67;;;;;;;34.48;27.23;98614.63;7396705;19;20014;-51
2024/03/14 06:55:42;;;;;;;3.75;1.30;;;;;;;34.34;27.71;98606.25;7396552;19;20454;-51
2024/03/14 06:58:11;;;;;;;4.18;1.50;;;;;;;34.44;27.76;98617.41;7396477;19;20044;-51
2024/03/14 07:00:40;;;;;;;8.25;0.98;;;;;;;34.95;27.78;98615.47;7396641;19;20014;-51
2024/03/14 07:03:07;;;;;;;3.88;1.10;;;;;;;34.79;27.52;98620.72;7396389;19;20146;-51
2024/03/14 07:05:33;;;;;;;4.25;1.27;;;;;;;34.78;27.73;98616.34;7395352;19;20066;-51
2024/03/14 07:07:59;;;;;;;3.58;1.55;;;;;;;34.82;27.58;98624.44;7394818;19;20066;-51
2024/03/14 07:10:25;;;;;;;0.85;0.77;;;;;;;35.25;27.27;98612.75;7394067;19;20014;-51
2024/03/14 07:12:51;;;;;;;1.27;0.93;;;;;;;34.73;27.70;98614.03;7399305;19;20476;-51
2024/03/14 07:15:17;;;;;;;2.28;1.33;;;;;;;35.15;27.08;98612.44;7396535;19;20010;-51
2024/03/14 07:17:44;;;;;;;2.20;1.20;;;;;;;35.05;27.21;98612.13;7397371;19;20338;-51
2024/03/14 07:20:16;;;;;;;0.95;0.85;;;;;;;35.08;27.26;98610.78;7396563;19;20010;-51
2024/03/14 07:22:43;;;;;;;12.48;1.83;;;;;;;34.59;27.66;98614.31;7395560;19;20025;-51
2024/03/14 07:25:13;;;;;;;1.88;1.55;;;;;;;34.79;27.66;98614.19;7395555;19;20022;-51
2024/03/14 07:27:40;;;;;;;0.68;0.50;;;;;;;35.19;27.40;98609.69;7395112;19;20452;-51
2024/03/14 07:30:13;;;;;;;1.02;0.82;;;;;;;35.65;27.12;98601.56;7393151;19;20011;-51
2024/03/14 07:32:41;;;;;;;6.05;0.68;;;;;;;35.47;27.29;98609.75;7395302;19;20041;-51
2024/03/14 07:35:09;;;;;;;0.10;0.10;;;;;;;35.61;27.22;98608.00;7395034;19;20351;-51
2024/03/14 07:37:35;;;;;;;1.55;0.35;;;;;;;35.21;27.73;98609.75;7394492;19;20043;-51
2024/03/14 07:40:04;;;;;;;6.18;0.30;;;;;;;35.38;27.34;98611.69;7394825;19;20470;-51
2024/03/14 07:42:31;;;;;;;1.92;0.57;;;;;;;35.10;27.44;98613.00;7392400;19;20006;-52
2024/03/14 07:45:00;;;;;;;0.95;0.20;;;;;;;34.76;27.65;98601.81;7393968;19;20011;-51
2024/03/14 07:47:26;;;;;;;0.90;0.82;;;;;;;34.68;27.95;98606.63;7393987;19;20475;-51
2024/03/14 07:49:53;;;;;;;0.38;0.38;;;;;;;34.74;27.74;98612.63;7392490;19;20471;-51
2024/03/14 07:52:19;;;;;;;0.38;0.30;;;;;;;34.71;28.08;98608.91;7394620;19;20030;-51
2024/03/14 07:54:45;;;;;;;0.43;0.43;;;;;;;34.80;28.19;98610.66;7398040;19;20022;-51
2024/03/14 07:57:15;;;;;;;0.38;0.30;;;;;;;34.78;28.05;98604.06;7394331;19;20022;-51
2024/03/14 07:59:42;;;;;;;1.38;0.73;;;;;;;34.91;27.77;98611.69;7393023;19;20018;-51
2024/03/14 08:02:11;;;;;;;1.85;0.68;;;;;;;34.85;27.70;98611.50;7393793;19;20015;-51
2024/03/14 08:04:47;;;;;;;0.55;0.35;;;;;;;34.92;28.30;98605.22;7396266;19;20027;-51
2024/03/14 08:07:22;;;;;;;4.80;0.80;;;;;;;34.88;28.18;98604.34;7391981;19;20085;-51
2024/03/14 08:09:48;;;;;;;1.02;0.55;;;;;;;34.68;28.42;98616.03;7392104;19;20014;-52
2024/03/14 08:12:15;;;;;;;0.52;0.25;;;;;;;35.30;28.32;98607.81;7396864;19;20455;-52
2024/03/14 08:14:44;;;;;;;5.93;1.45;;;;;;;35.73;27.79;98605.47;7395824;19;20014;-51
2024/03/14 08:17:13;;;;;;;1.00;0.28;;;;;;;35.42;27.84;98603.09;7394277;19;20006;-51
2024/03/14 08:19:40;;;;;;;1.67;1.38;;;;;;;35.50;28.13;98606.25;7392162;19;20073;-51
2024/03/14 08:22:08;;;;;;;1.48;0.35;;;;;;;36.39;27.25;98599.91;7391801;19;20019;-51
2024/03/14 08:24:47;;;;;;;0.20;0.10;;;;;;;36.79;26.82;98605.97;7393647;19;20033;-51
2024/03/14 08:27:13;;;;;;;0.95;0.32;;;;;;;36.72;26.66;98596.38;7390989;19;20349;-51
2024/03/14 08:29:40;;;;;;;1.60;0.35;;;;;;;36.68;26.84;98602.09;7390768;19;20014;-51
2024/03/14 08:32:06;;;;;;;3.75;0.85;;;;;;;36.80;26.60;98602.38;7392871;19;20010;-51
2024/03/14 08:34:34;;;;;;;0.63;0.38;;;;;;;38.13;25.68;98592.75;7391647;19;20018;-51
2024/03/14 08:37:01;;;;;;;4.55;0.77;;;;;;;38.52;25.46;98580.34;7392850;19;20020;-51
2024/03/14 08:39:28;;;;;;;0.38;0.17;;;;;;;38.50;25.24;98583.22;7391675;19;20006;-51
2024/03/14 08:41:54;;;;;;;0.88;0.35;;;;;;;38.42;25.48;98580.91;7391107;19;20025;-51
2024/03/14 08:44:26;;;;;;;1.05;0.40;;;;;;;38.38;25.21;98580.84;7392653;19;20562;-51
2024/03/14 08:46:53;;;;;;;2.20;0.50;;;;;;;38.35;25.35;98579.34;7396803;19;20015;-52
2024/03/14 08:49:19;;;;;;;2.25;1.00;;;;;;;38.23;25.54;98590.75;7394503;19;20022;-51
2024/03/14 08:51:45;;;;;;;2.72;1.50;;;;;;;38.22;25.41;98583.47;7393200;19;20010;-51
2024/03/14 08:56:52;;;;;;;1.58;0.85;;;;;;;38.59;25.23;98596.47;7392432;19;20043;-52
2024/03/14 08:59:20;;;;;;;0.30;0.13;;;;;;;38.61;24.84;98582.69;7392192;19;20324;-56
2024/03/14 09:01:46;;;;;;;10.20;1.15;;;;;;;38.83;24.70;98591.03;7393636;19;20011;-56
2024/03/14 09:04:12;;;;;;;0.50;0.30;;;;;;;38.92;24.79;98580.22;7389196;19;20650;-56
2024/03/14 09:06:39;;;;;;;1.08;0.50;;;;;;;38.94;24.78;98583.16;7388045;19;20010;-56
2024/03/14 09:09:06;;;;;;;1.02;0.77;;;;;;;39.02;24.71;98586.94;7388383;19;20006;-56
2024/03/14 09:11:32;;;;;;;0.85;0.50;;;;;;;39.03;24.77;98587.66;7390797;19;20367;-56
2024/03/14 09:13:59;;;;;;;1.75;0.80;;;;;;;38.96;24.71;98589.03;7388198;19;20427;-56
2024/03/14 09:16:28;;;;;;;1.60;0.90;;;;;;;39.20;24.82;98574.81;7389363;19;20481;-56
2024/03/14 09:18:57;;;;;;;0.57;0.38;;;;;;;38.24;25.37;98592.25;7387641;19;20023;-56
2024/03/14 09:21:27;;;;;;;2.17;0.73;;;;;;;37.89;25.59;98590.91;7389500;19;20332;-56
2024/03/14 09:23:54;;;;;;;;;;;;;;;39.07;24.47;98568.03;7388520;19;20021;-56
2024/03/14 09:26:20;;;;;;;1.70;0.32;;;;;;;39.05;24.39;98564.38;7387061;19;20093;-56
2024/03/14 09:28:47;;;;;;;0.15;0.10;;;;;;;37.68;25.59;98567.94;7393189;19;20963;-56
2024/03/14 09:31:14;;;;;;;1.23;0.50;;;;;;;37.83;25.53;98572.63;7395774;19;20331;-56
2024/03/14 09:33:40;;;;;;;0.35;0.17;;;;;;;38.27;25.31;98567.56;7398398;19;20504;-56
2024/03/14 09:36:09;;;;;;;1.58;0.63;;;;;;;38.15;25.44;98567.34;7398537;19;20021;-56
2024/03/14 09:38:36;;;;;;;4.85;0.28;;;;;;;37.21;26.06;98569.91;7398598;19;20010;-56
2024/03/14 09:41:02;;;;;;;0.40;0.32;;;;;;;37.79;25.77;98570.31;7398383;19;20018;-56
2024/03/14 09:43:29;;;;;;;1.05;0.43;;;;;;;37.75;25.48;98560.81;7399644;19;20319;-56
2024/03/14 09:45:55;;;;;;;6.13;1.05;;;;;;;37.81;25.53;98558.03;7401005;19;20017;-56
2024/03/14 09:48:31;;;;;;;2.88;0.85;;;;;;;36.75;26.24;98548.59;7398707;19;20029;-55
2024/03/14 09:51:03;;;;;;;2.55;0.68;;;;;;;36.79;26.48;98551.56;7398941;19;20015;-55
2024/03/14 09:53:31;;;;;;;2.42;0.80;;;;;;;37.80;25.67;98550.75;7398030;19;20463;-56
2024/03/14 09:55:57;;;;;;;7.53;1.73;;;;;;;38.12;25.51;98562.94;7400100;19;20017;-55
2024/03/14 09:58:24;;;;;;;3.55;0.68;;;;;;;38.27;25.64;98555.94;7398029;19;20371;-55
2024/03/14 10:00:52;;;;;;;2.15;0.40;;;;;;;38.20;25.44;98554.34;7398357;19;20011;-56
2024/03/14 10:03:20;;;;;;;1.73;0.50;;;;;;;38.13;25.45;98552.78;7397309;19;20022;-56
2024/03/14 10:05:51;;;;;;;3.80;0.80;;;;;;;38.40;25.22;98554.69;7396492;19;20013;-56
2024/03/14 10:08:21;;;;;;;0.20;0.10;;;;;;;38.92;24.76;98551.13;7400186;19;20011;-58
2024/03/14 10:10:47;;;;;;;0.60;0.28;;;;;;;39.00;24.84;98551.22;7396055;19;20033;-56
2024/03/14 10:13:33;;;;;;;4.13;0.45;;;;;;;38.89;24.57;98544.53;7397794;19;20352;-56
2024/03/14 10:16:00;;;;;;;4.75;0.88;;;;;;;39.41;24.69;98541.53;7399647;19;20014;-55
2024/03/14 10:18:27;;;;;;;0.80;0.43;;;;;;;39.69;24.43;98536.03;7399469;19;20366;-55
2024/03/14 10:20:53;;;;;;;1.38;0.47;;;;;;;39.73;24.30;98535.34;7397420;19;20118;-56
2024/03/14 10:23:19;;;;;;;8.85;1.13;;;;;;;39.47;24.24;98532.84;7396485;19;20022;-56
2024/03/14 10:25:53;;;;;;;2.20;0.93;;;;;;;39.69;24.18;98530.19;7395929;19;20044;-56
2024/03/14 10:28:20;;;;;;;0.65;0.40;;;;;;;39.95;23.96;98512.94;7398749;19;20025;-56
2024/03/14 10:30:49;;;;;;;2.38;0.85;;;;;;;39.66;24.40;98519.97;7393828;19;20566;-57
2024/03/14 10:33:15;;;;;;;1.70;0.95;;;;;;;39.50;24.30;98521.97;7398232;19;20037;-56
2024/03/14 10:35:41;;;;;;;0.90;0.45;;;;;;;39.86;23.97;98513.59;7397272;19;20101;-56
2024/03/14 10:38:13;;;;;;;0.45;0.45;;;;;;;39.99;23.64;98515.19;7396979;19;20011;-57
2024/03/14 10:40:41;;;;;;;0.95;0.40;;;;;;;40.04;23.76;98505.03;7397575;19;20474;-56
2024/03/14 10:43:10;;;;;;;0.38;0.35;;;;;;;39.83;23.61;98512.81;7396437;19;20363;-56
2024/03/14 10:45:37;;;;;;;3.08;0.73;;;;;;;39.95;23.99;98515.88;7398027;19;20015;-56
2024/03/14 10:48:07;;;;;;;0.50;0.43;;;;;;;40.17;23.73;98505.84;7396250;19;20018;-56
2024/03/14 10:50:34;;;;;;;0.20;0.20;;;;;;;40.26;23.60;98498.63;7394162;19;20014;-56
2024/03/14 10:53:01;;;;;;;3.95;1.45;;;;;;;40.42;23.65;98495.81;7399445;19;20451;-56
2024/03/14 10:55:32;;;;;;;3.92;0.80;;;;;;;40.35;23.71;98491.38;7396210;19;20018;-56
2024/03/14 10:58:01;;;;;;;0.28;0.25;;;;;;;39.78;24.16;98490.94;7394461;19;20010;-56
2024/03/14 11:00:29;;;;;;;1.05;0.30;;;;;;;39.68;24.22;98487.19;7396377;19;20074;-56
2024/03/14 11:02:57;;;;;;;0.57;0.28;;;;;;;39.14;24.32;98479.31;7395497;19;20015;-56
2024/03/14 11:05:23;;;;;;;0.77;0.73;;;;;;;39.11;24.56;98485.81;7399208;19;20002;-56
2024/03/14 11:07:56;;;;;;;6.07;1.85;;;;;;;38.81;24.91;98488.38;7394960;19;20050;-56
2024/03/14 11:10:28;;;;;;;3.95;0.93;;;;;;;38.84;25.05;98478.19;7393484;19;20361;-56
2024/03/14 11:13:05;;;;;;;2.42;0.50;;;;;;;38.64;24.95;98476.47;7399368;19;20459;-56
2024/03/14 11:15:37;;;;;;;1.20;0.47;;;;;;;38.75;25.21;98467.91;7395656;19;20097;-56
2024/03/14 11:18:07;;;;;;;0.95;0.55;;;;;;;38.72;25.42;98464.25;7395406;19;20047;-56
2024/03/14 11:20:36;;;;;;;8.20;0.95;;;;;;;38.36;24.73;98467.34;7395590;19;20014;-56
2024/03/14 11:23:09;;;;;;;1.15;0.60;;;;;;;38.33;25.04;98462.97;7395448;19;20074;-56
2024/03/14 11:25:39;;;;;;;1.17;0.45;;;;;;;38.53;25.44;98460.31;7395407;19;20045;-56
2024/03/14 11:28:07;;;;;;;0.45;0.43;;;;;;;38.60;25.10;98458.97;7395280;19;20485;-56
2024/03/14 11:30:33;;;;;;;1.65;0.45;;;;;;;38.44;24.94;98450.00;7393301;19;20018;-56
2024/03/14 11:33:06;;;;;;;0.50;0.25;;;;;;;38.37;25.11;98442.66;7395199;19;20021;-56
2024/03/14 11:35:45;;;;;;;4.13;1.02;;;;;;;38.38;25.26;98449.91;7393960;19;20014;-56
2024/03/14 11:38:20;;;;;;;1.73;1.08;;;;;;;38.53;25.34;98442.84;7394927;19;20018;-56